createdAt,value
2018-07-05T00:00:56.660Z,23.60
2018-07-05T00:03:36.455Z,23.56
2018-07-05T00:06:16.468Z,23.52
2018-07-05T00:08:56.254Z,23.48
2018-07-05T00:11:36.118Z,23.43
2018-07-05T00:14:16.073Z,23.38
2018-07-05T00:16:56.013Z,23.33
2018-07-05T00:19:35.848Z,23.32
2018-07-05T00:22:15.696Z,23.30
2018-07-05T00:24:55.761Z,23.35
2018-07-05T00:27:35.656Z,23.30
2018-07-05T00:30:15.678Z,23.35
2018-07-05T00:32:55.590Z,23.35
2018-07-05T00:35:35.368Z,23.38
2018-07-05T00:38:15.333Z,23.41
2018-07-05T00:40:55.289Z,23.42
2018-07-05T00:43:35.233Z,23.42
2018-07-05T00:46:15.152Z,23.44
2018-07-05T00:48:55.106Z,23.47
2018-07-05T00:51:34.909Z,23.50
2018-07-05T00:54:14.745Z,23.50
2018-07-05T00:56:54.823Z,23.55
2018-07-05T00:59:34.736Z,23.55
2018-07-05T01:02:14.720Z,23.58
2018-07-05T01:04:54.551Z,23.57
2018-07-05T01:07:34.485Z,23.60
2018-07-05T01:10:14.285Z,23.63
2018-07-05T01:12:54.215Z,23.64
2018-07-05T01:15:34.042Z,23.65
2018-07-05T01:18:13.828Z,23.63
2018-07-05T01:20:53.716Z,23.63
2018-07-05T01:23:33.567Z,23.62
2018-07-05T01:26:13.554Z,23.62
2018-07-05T01:28:53.523Z,23.59
2018-07-05T01:31:33.553Z,23.54
2018-07-05T01:34:13.409Z,23.45
2018-07-05T01:36:53.352Z,23.40
2018-07-05T01:39:33.279Z,23.32
2018-07-05T01:42:13.371Z,23.20
2018-07-05T01:44:53.204Z,22.93
2018-07-05T01:47:33.188Z,22.73
2018-07-05T01:50:13.204Z,22.58
2018-07-05T01:52:53.031Z,22.41
2018-07-05T01:55:32.896Z,22.23
2018-07-05T01:58:12.809Z,22.13
2018-07-05T02:00:52.782Z,21.95
2018-07-05T02:03:32.708Z,21.87
2018-07-05T02:06:12.554Z,21.78
2018-07-05T02:08:52.629Z,21.65
2018-07-05T02:11:32.620Z,21.55
2018-07-05T02:14:12.405Z,21.49
2018-07-05T02:16:52.544Z,21.45
2018-07-05T02:19:32.276Z,21.42
2018-07-05T02:22:12.152Z,21.43
2018-07-05T02:24:52.097Z,21.38
2018-07-05T02:27:31.928Z,21.37
2018-07-05T02:30:11.793Z,21.33
2018-07-05T02:32:51.639Z,21.33
2018-07-05T02:35:31.499Z,21.32
2018-07-05T02:38:16.516Z,21.34
2018-07-05T02:40:56.496Z,21.36
2018-07-05T02:43:36.204Z,21.35
2018-07-05T02:46:15.896Z,21.37
2018-07-05T02:48:55.808Z,21.39
2018-07-05T02:51:35.745Z,21.43
2018-07-05T02:54:15.664Z,21.40
2018-07-05T02:56:55.705Z,21.37
2018-07-05T02:59:35.593Z,21.25
2018-07-05T03:02:15.336Z,21.16
2018-07-05T03:04:55.163Z,21.04
2018-07-05T03:07:35.038Z,20.94
2018-07-05T03:10:14.889Z,20.93
2018-07-05T03:12:54.785Z,20.85
2018-07-05T03:15:34.564Z,20.82
2018-07-05T03:18:14.477Z,20.79
2018-07-05T03:20:54.429Z,20.74
2018-07-05T03:23:34.313Z,20.72
2018-07-05T03:26:14.225Z,20.74
2018-07-05T03:28:54.212Z,20.73
2018-07-05T03:31:34.160Z,20.75
2018-07-05T03:34:13.992Z,20.73
2018-07-05T03:36:53.947Z,20.78
2018-07-05T03:39:33.966Z,20.78
2018-07-05T03:42:13.902Z,20.78
2018-07-05T03:44:53.889Z,20.86
2018-07-05T03:47:33.670Z,20.88
2018-07-05T03:50:13.504Z,20.86
2018-07-05T03:52:53.458Z,20.90
2018-07-05T03:55:33.269Z,20.91
2018-07-05T03:58:13.438Z,21.00
2018-07-05T04:00:53.576Z,21.02
2018-07-05T04:03:33.393Z,21.01
2018-07-05T04:06:13.252Z,21.07
2018-07-05T04:08:53.092Z,21.06
2018-07-05T04:11:32.940Z,21.03
2018-07-05T04:14:13.048Z,21.04
2018-07-05T04:16:52.868Z,21.07
2018-07-05T04:19:32.826Z,21.07
2018-07-05T04:22:12.836Z,21.08
2018-07-05T04:24:52.741Z,21.17
2018-07-05T04:27:32.520Z,21.23
2018-07-05T04:30:12.377Z,21.31
2018-07-05T04:32:52.292Z,21.40
2018-07-05T04:35:32.152Z,21.50
2018-07-05T04:38:11.933Z,21.61
2018-07-05T04:40:51.616Z,21.66
2018-07-05T04:43:31.549Z,21.70
2018-07-05T04:46:11.477Z,21.73
2018-07-05T04:48:51.144Z,21.70
2018-07-05T04:51:31.109Z,21.71
2018-07-05T04:54:11.188Z,21.68
2018-07-05T04:56:51.119Z,21.63
2018-07-05T04:59:31.092Z,21.61
2018-07-05T05:02:10.997Z,21.64
2018-07-05T05:04:50.806Z,21.69
2018-07-05T05:07:30.515Z,21.78
2018-07-05T05:10:10.660Z,21.83
2018-07-05T05:12:50.545Z,22.05
2018-07-05T05:15:30.469Z,22.25
2018-07-05T05:18:10.365Z,22.49
2018-07-05T05:20:50.736Z,22.63
2018-07-05T05:23:30.699Z,22.76
2018-07-05T05:26:10.521Z,22.92
2018-07-05T05:28:50.558Z,23.09
2018-07-05T05:31:30.516Z,23.15
2018-07-05T05:34:10.475Z,23.05
2018-07-05T05:36:50.534Z,22.98
2018-07-05T05:39:30.416Z,23.03
2018-07-05T05:42:10.188Z,23.06
2018-07-05T05:44:50.084Z,23.14
2018-07-05T05:47:30.105Z,23.23
2018-07-05T05:50:09.865Z,23.36
2018-07-05T05:52:49.620Z,23.45
2018-07-05T05:55:29.364Z,23.67
2018-07-05T05:58:09.333Z,23.87
2018-07-05T06:00:49.196Z,24.03
2018-07-05T06:03:29.080Z,24.27
2018-07-05T06:06:08.989Z,24.50
2018-07-05T06:08:48.899Z,24.68
2018-07-05T06:11:28.812Z,24.80
2018-07-05T06:14:08.784Z,24.86
2018-07-05T06:16:48.685Z,24.97
2018-07-05T06:19:28.359Z,25.04
2018-07-05T06:22:08.350Z,25.24
2018-07-05T06:24:48.212Z,25.35
2018-07-05T06:27:28.541Z,25.43
2018-07-05T06:30:08.786Z,25.47
2018-07-05T06:32:49.344Z,25.48
2018-07-05T06:35:29.499Z,25.61
2018-07-05T06:38:09.408Z,25.80
2018-07-05T06:40:49.428Z,25.93
2018-07-05T06:43:29.204Z,26.13
2018-07-05T06:46:09.156Z,26.29
2018-07-05T06:48:48.915Z,26.45
2018-07-05T06:51:29.007Z,26.59
2018-07-05T06:54:08.906Z,26.78
2018-07-05T06:56:48.625Z,26.86
2018-07-05T06:59:28.475Z,26.77
2018-07-05T07:02:08.381Z,27.09
2018-07-05T07:04:48.246Z,27.56
2018-07-05T07:07:27.985Z,28.06
2018-07-05T07:10:07.795Z,28.76
2018-07-05T07:12:47.520Z,29.97
2018-07-05T07:15:27.719Z,30.84
2018-07-05T07:18:07.692Z,32.47
2018-07-05T07:20:47.557Z,33.98
2018-07-05T07:23:27.490Z,34.33
2018-07-05T07:26:07.360Z,34.90
2018-07-05T07:28:47.388Z,35.29
2018-07-05T07:31:27.274Z,35.55
2018-07-05T07:34:07.248Z,34.93
2018-07-05T07:36:46.974Z,34.85
2018-07-05T07:39:26.983Z,35.21
2018-07-05T07:41:54.444Z,34.97
2018-07-05T07:44:22.014Z,34.25
2018-07-05T07:46:49.621Z,34.93
2018-07-05T07:49:17.169Z,34.62
2018-07-05T07:51:44.627Z,34.55
2018-07-05T07:54:12.091Z,33.69
2018-07-05T07:56:39.564Z,33.15
2018-07-05T07:59:07.085Z,32.60
2018-07-05T08:01:34.568Z,32.34
2018-07-05T08:04:02.083Z,31.77
2018-07-05T08:06:29.729Z,31.93
2018-07-05T08:08:57.188Z,32.48
2018-07-05T08:11:24.755Z,32.62
2018-07-05T08:13:52.305Z,32.24
2018-07-05T08:16:19.865Z,31.75
2018-07-05T08:18:47.336Z,31.46
2018-07-05T08:21:14.790Z,31.44
2018-07-05T08:23:42.484Z,31.34
2018-07-05T08:26:10.046Z,31.37
2018-07-05T08:28:37.570Z,31.65
2018-07-05T08:31:05.053Z,31.64
2018-07-05T08:33:32.560Z,31.63
2018-07-05T08:36:00.093Z,31.76
2018-07-05T08:38:27.608Z,31.78
2018-07-05T08:40:55.205Z,32.00
2018-07-05T08:43:22.712Z,32.19
2018-07-05T08:45:50.235Z,32.11
2018-07-05T08:48:17.708Z,32.00
2018-07-05T08:50:45.159Z,32.03
2018-07-05T08:53:12.615Z,32.11
2018-07-05T08:55:40.080Z,31.78
2018-07-05T08:58:07.619Z,31.67
2018-07-05T09:00:35.141Z,31.72
2018-07-05T09:03:02.716Z,31.70
2018-07-05T09:05:30.337Z,31.62
2018-07-05T09:07:57.800Z,31.70
2018-07-05T09:10:25.328Z,31.83
2018-07-05T09:12:52.804Z,31.90
2018-07-05T09:15:20.351Z,31.87
2018-07-05T09:17:47.996Z,31.94
2018-07-05T09:20:15.429Z,32.04
2018-07-05T09:22:42.911Z,32.08
2018-07-05T09:25:10.435Z,32.06
2018-07-05T09:27:37.917Z,32.14
2018-07-05T09:30:05.449Z,32.12
2018-07-05T09:32:32.972Z,31.79
2018-07-05T09:35:00.443Z,31.96
2018-07-05T09:37:27.914Z,31.97
2018-07-05T09:39:55.502Z,31.94
2018-07-05T09:42:22.961Z,32.08
2018-07-05T09:44:50.541Z,32.38
2018-07-05T09:47:18.113Z,32.55
2018-07-05T09:49:45.654Z,32.92
2018-07-05T09:52:13.127Z,33.36
2018-07-05T09:54:40.597Z,33.55
2018-07-05T09:57:08.136Z,34.21
2018-07-05T09:59:35.596Z,34.44
2018-07-05T10:02:03.113Z,34.05
2018-07-05T10:04:30.595Z,33.68
2018-07-05T10:06:58.068Z,33.29
2018-07-05T10:09:25.671Z,33.60
2018-07-05T10:11:53.253Z,33.46
2018-07-05T10:14:20.827Z,33.60
2018-07-05T10:16:48.320Z,33.72
2018-07-05T10:19:15.850Z,33.80
2018-07-05T10:21:43.455Z,34.31
2018-07-05T10:24:10.932Z,34.93
2018-07-05T10:26:38.453Z,34.90
2018-07-05T10:29:18.413Z,34.62
2018-07-05T10:31:58.208Z,34.47
2018-07-05T10:34:25.683Z,35.08
2018-07-05T10:36:53.197Z,34.56
2018-07-05T10:39:20.853Z,34.18
2018-07-05T10:42:00.812Z,35.06
2018-07-05T10:44:40.669Z,35.48
2018-07-05T10:47:20.499Z,36.04
2018-07-05T10:50:00.447Z,35.10
2018-07-05T10:52:40.300Z,34.02
2018-07-05T10:55:20.272Z,33.64
2018-07-05T10:58:00.092Z,34.07
2018-07-05T11:00:40.060Z,34.65
2018-07-05T11:03:19.905Z,35.08
2018-07-05T11:05:59.760Z,35.21
2018-07-05T11:08:39.587Z,35.46
2018-07-05T11:11:19.501Z,35.52
2018-07-05T11:13:59.403Z,35.24
2018-07-05T11:16:39.365Z,34.30
2018-07-05T11:19:19.308Z,33.66
2018-07-05T11:21:59.325Z,33.83
2018-07-05T11:24:39.335Z,34.24
2018-07-05T11:27:19.384Z,34.23
2018-07-05T11:29:59.385Z,35.17
2018-07-05T11:32:39.244Z,36.21
2018-07-05T11:35:19.220Z,37.38
2018-07-05T11:37:59.177Z,37.81
2018-07-05T11:40:39.088Z,38.09
2018-07-05T11:43:19.058Z,37.00
2018-07-05T11:45:59.084Z,35.66
2018-07-05T11:48:39.018Z,35.04
2018-07-05T11:51:19.039Z,35.03
2018-07-05T11:53:59.028Z,35.93
2018-07-05T11:56:38.936Z,36.52
2018-07-05T11:59:18.728Z,35.95
2018-07-05T12:01:58.683Z,35.63
2018-07-05T12:04:38.599Z,36.64
2018-07-05T12:07:18.496Z,36.54
2018-07-05T12:09:58.375Z,36.70
2018-07-05T12:12:38.305Z,37.63
2018-07-05T12:15:18.044Z,38.63
2018-07-05T12:17:58.032Z,38.24
2018-07-05T12:20:38.476Z,38.37
2018-07-05T12:23:18.692Z,38.95
2018-07-05T12:25:59.605Z,38.77
2018-07-05T12:28:39.564Z,39.06
2018-07-05T12:31:19.651Z,38.83
2018-07-05T12:33:59.645Z,39.30
2018-07-05T12:36:39.740Z,39.26
2018-07-05T12:39:19.747Z,38.64
2018-07-05T12:41:59.678Z,38.31
2018-07-05T12:44:39.385Z,38.25
2018-07-05T12:47:19.300Z,36.80
2018-07-05T12:49:59.188Z,36.37
2018-07-05T12:52:39.248Z,37.06
2018-07-05T12:55:19.180Z,37.08
2018-07-05T12:57:59.144Z,36.13
2018-07-05T13:00:39.065Z,35.46
2018-07-05T13:03:18.823Z,34.90
2018-07-05T13:05:58.792Z,35.70
2018-07-05T13:08:38.783Z,35.46
2018-07-05T13:11:18.608Z,34.06
2018-07-05T13:13:58.714Z,33.21
2018-07-05T13:16:38.641Z,32.83
2018-07-05T13:19:18.647Z,33.62
2018-07-05T13:21:58.418Z,33.86
2018-07-05T13:24:38.320Z,33.62
2018-07-05T13:27:18.140Z,33.18
2018-07-05T13:29:58.158Z,33.89
2018-07-05T13:32:38.033Z,34.42
2018-07-05T13:35:18.018Z,34.46
2018-07-05T13:37:57.835Z,33.32
2018-07-05T13:40:37.852Z,32.38
2018-07-05T13:43:17.622Z,32.24
2018-07-05T13:45:57.512Z,32.26
2018-07-05T13:48:37.354Z,31.79
2018-07-05T13:51:17.288Z,31.17
2018-07-05T13:53:57.343Z,30.57
2018-07-05T13:56:37.222Z,30.47
2018-07-05T13:59:17.114Z,30.77
2018-07-05T14:01:57.136Z,30.61
2018-07-05T14:04:37.093Z,30.57
2018-07-05T14:07:16.850Z,30.29
2018-07-05T14:09:56.577Z,30.00
2018-07-05T14:12:36.474Z,29.80
2018-07-05T14:15:16.567Z,29.65
2018-07-05T14:17:56.450Z,29.69
2018-07-05T14:20:36.601Z,29.58
2018-07-05T14:23:16.445Z,29.69
2018-07-05T14:25:56.376Z,29.75
2018-07-05T14:28:36.409Z,29.85
2018-07-05T14:31:16.334Z,30.02
2018-07-05T14:33:56.009Z,29.90
2018-07-05T14:36:35.750Z,29.66
2018-07-05T14:39:15.490Z,29.46
2018-07-05T14:41:55.288Z,29.36
2018-07-05T14:44:35.113Z,29.26
2018-07-05T14:47:15.082Z,29.28
2018-07-05T14:49:54.865Z,29.18
2018-07-05T14:52:34.813Z,29.15
2018-07-05T14:55:14.768Z,29.12
2018-07-05T14:57:54.712Z,29.10
2018-07-05T15:00:34.380Z,29.01
2018-07-05T15:03:14.395Z,28.85
2018-07-05T15:05:54.344Z,28.95
2018-07-05T15:08:34.128Z,29.09
2018-07-05T15:11:14.052Z,29.12
2018-07-05T15:13:53.936Z,29.10
2018-07-05T15:16:33.756Z,29.12
2018-07-05T15:19:13.631Z,29.16
2018-07-05T15:21:53.530Z,29.26
2018-07-05T15:24:33.453Z,29.27
2018-07-05T15:27:13.326Z,29.13
2018-07-05T15:29:53.066Z,29.03
2018-07-05T15:32:33.108Z,28.96
2018-07-05T15:35:12.990Z,28.91
2018-07-05T15:37:52.740Z,28.86
2018-07-05T15:40:32.650Z,28.70
2018-07-05T15:43:12.436Z,28.53
2018-07-05T15:45:52.006Z,28.35
2018-07-05T15:48:32.044Z,28.19
2018-07-05T15:51:11.758Z,28.24
2018-07-05T15:53:51.817Z,28.13
2018-07-05T15:56:31.782Z,28.11
2018-07-05T15:59:11.581Z,28.08
2018-07-05T16:01:51.615Z,27.96
2018-07-05T16:04:31.547Z,27.84
2018-07-05T16:07:11.385Z,27.80
2018-07-05T16:09:51.279Z,27.76
2018-07-05T16:12:31.223Z,27.68
2018-07-05T16:15:10.968Z,27.55
2018-07-05T16:17:50.924Z,27.45
2018-07-05T16:20:30.696Z,27.34
2018-07-05T16:23:10.537Z,27.33
2018-07-05T16:25:50.374Z,27.15
2018-07-05T16:28:30.349Z,27.38
2018-07-05T16:31:10.203Z,27.50
2018-07-05T16:33:50.185Z,27.62
2018-07-05T16:36:30.073Z,27.80
2018-07-05T16:39:09.862Z,27.86
2018-07-05T16:41:49.668Z,27.89
2018-07-05T16:44:29.500Z,28.00
2018-07-05T16:47:09.413Z,28.08
2018-07-05T16:49:49.149Z,27.99
2018-07-05T16:52:29.104Z,27.75
2018-07-05T16:55:09.000Z,27.65
2018-07-05T16:57:48.994Z,27.45
2018-07-05T17:00:28.926Z,27.34
2018-07-05T17:03:08.691Z,27.06
2018-07-05T17:05:48.577Z,26.99
2018-07-05T17:08:28.451Z,26.96
2018-07-05T17:11:08.211Z,26.91
2018-07-05T17:13:48.141Z,26.83
2018-07-05T17:16:28.037Z,26.84
2018-07-05T17:19:07.900Z,26.85
2018-07-05T17:21:47.928Z,26.78
2018-07-05T17:24:28.029Z,26.65
2018-07-05T17:27:07.813Z,26.53
2018-07-05T17:29:47.664Z,26.40
2018-07-05T17:32:27.597Z,26.25
2018-07-05T17:35:07.703Z,26.21
2018-07-05T17:37:47.544Z,26.08
2018-07-05T17:40:27.594Z,25.92
2018-07-05T17:43:07.445Z,25.80
2018-07-05T17:45:47.315Z,25.66
2018-07-05T17:48:27.284Z,25.58
2018-07-05T17:51:07.092Z,25.50
2018-07-05T17:53:46.993Z,25.48
2018-07-05T17:56:26.937Z,25.46
2018-07-05T17:59:06.837Z,25.44
2018-07-05T18:01:46.705Z,25.43
2018-07-05T18:04:26.572Z,25.36
2018-07-05T18:07:06.476Z,25.30
2018-07-05T18:09:46.312Z,25.26
2018-07-05T18:12:26.113Z,25.19
2018-07-05T18:15:05.960Z,25.09
2018-07-05T18:17:46.053Z,24.96
2018-07-05T18:20:26.042Z,24.82
2018-07-05T18:23:05.948Z,24.66
2018-07-05T18:25:45.734Z,24.59
2018-07-05T18:28:25.608Z,24.52
2018-07-05T18:31:05.676Z,24.44
2018-07-05T18:33:45.561Z,24.35
2018-07-05T18:36:25.691Z,24.31
2018-07-05T18:39:05.902Z,24.24
2018-07-05T18:41:45.800Z,24.15
2018-07-05T18:44:25.779Z,24.01
2018-07-05T18:47:05.630Z,23.92
2018-07-05T18:49:45.484Z,23.84
2018-07-05T18:52:25.439Z,23.76
2018-07-05T18:55:05.476Z,23.71
2018-07-05T18:57:49.066Z,23.67
2018-07-05T19:00:28.964Z,23.57
2018-07-05T19:03:08.865Z,23.48
2018-07-05T19:05:48.884Z,23.33
2018-07-05T19:08:28.941Z,23.26
2018-07-05T19:11:08.987Z,23.15
2018-07-05T19:13:48.861Z,23.05
2018-07-05T19:16:29.134Z,22.96
2018-07-05T19:19:08.848Z,22.89
2018-07-05T19:21:48.884Z,22.86
2018-07-05T19:24:28.643Z,22.77
2018-07-05T19:27:08.552Z,22.70
2018-07-05T19:29:48.376Z,22.62
2018-07-05T19:32:28.443Z,22.56
2018-07-05T19:35:08.390Z,22.49
2018-07-05T19:37:48.212Z,22.43
2018-07-05T19:40:27.975Z,22.37
2018-07-05T19:43:07.712Z,22.31
2018-07-05T19:45:47.584Z,22.28
2018-07-05T19:48:27.461Z,22.23
2018-07-05T19:51:07.306Z,22.16
2018-07-05T19:53:47.282Z,22.09
2018-07-05T19:56:27.061Z,22.04
2018-07-05T19:59:06.915Z,22.01
2018-07-05T20:01:46.767Z,21.97
2018-07-05T20:04:26.595Z,21.94
2018-07-05T20:07:06.594Z,21.87
2018-07-05T20:09:46.665Z,21.82
2018-07-05T20:12:26.693Z,21.77
2018-07-05T20:15:06.580Z,21.73
2018-07-05T20:17:46.467Z,21.65
2018-07-05T20:20:26.299Z,21.60
2018-07-05T20:23:06.256Z,21.58
2018-07-05T20:25:46.088Z,21.54
2018-07-05T20:28:25.897Z,21.50
2018-07-05T20:31:05.598Z,21.48
2018-07-05T20:33:45.747Z,21.43
2018-07-05T20:36:25.604Z,21.38
2018-07-05T20:39:06.507Z,21.36
2018-07-05T20:41:46.491Z,21.32
2018-07-05T20:44:26.420Z,21.28
2018-07-05T20:47:06.481Z,21.25
2018-07-05T20:49:46.365Z,21.22
2018-07-05T20:52:26.252Z,21.17
2018-07-05T20:55:06.160Z,21.13
2018-07-05T20:57:46.139Z,21.10
2018-07-05T21:00:26.304Z,21.06
2018-07-05T21:03:06.353Z,21.04
2018-07-05T21:05:46.311Z,20.99
2018-07-05T21:08:26.281Z,20.98
2018-07-05T21:11:06.162Z,20.94
2018-07-05T21:13:45.944Z,20.90
2018-07-05T21:16:25.946Z,20.85
2018-07-05T21:19:05.844Z,20.81
2018-07-05T21:21:45.716Z,20.76
2018-07-05T21:24:25.546Z,20.71
2018-07-05T21:27:05.393Z,20.68
2018-07-05T21:29:45.359Z,20.63
2018-07-05T21:32:25.412Z,20.59
2018-07-05T21:35:05.524Z,20.56
2018-07-05T21:37:45.164Z,20.53
2018-07-05T21:40:25.319Z,20.52
2018-07-05T21:43:05.258Z,20.49
2018-07-05T21:45:45.168Z,20.48
2018-07-05T21:48:25.084Z,20.45
2018-07-05T21:51:05.121Z,20.42
2018-07-05T21:53:44.896Z,20.40
2018-07-05T21:56:24.790Z,20.40
2018-07-05T21:59:04.789Z,20.37
2018-07-05T22:01:44.775Z,20.33
2018-07-05T22:04:24.567Z,20.29
2018-07-05T22:07:04.649Z,20.25
2018-07-05T22:09:44.624Z,20.22
2018-07-05T22:12:24.653Z,20.19
2018-07-05T22:15:04.554Z,20.17
2018-07-05T22:17:49.639Z,20.17
2018-07-05T22:20:35.063Z,20.11
2018-07-05T22:23:20.268Z,20.05
2018-07-05T22:26:05.463Z,20.03
2018-07-05T22:29:48.829Z,20.00
2018-07-05T22:32:28.685Z,19.94
2018-07-05T22:35:08.509Z,19.92
2018-07-05T22:37:48.433Z,19.92
2018-07-05T22:40:28.192Z,19.89
2018-07-05T22:43:07.943Z,19.85
2018-07-05T22:45:47.811Z,19.83
2018-07-05T22:48:27.674Z,19.81
2018-07-05T22:51:07.600Z,19.78
2018-07-05T22:53:47.520Z,19.76
2018-07-05T22:56:27.316Z,19.75
2018-07-05T22:59:07.271Z,19.73
2018-07-05T23:01:47.241Z,19.72
2018-07-05T23:04:26.963Z,19.70
2018-07-05T23:07:07.075Z,19.71
2018-07-05T23:09:46.981Z,19.70
2018-07-05T23:12:26.889Z,19.69
2018-07-05T23:15:06.712Z,19.68
2018-07-05T23:17:46.653Z,19.71
2018-07-05T23:20:26.422Z,19.73
2018-07-05T23:23:06.230Z,19.76
2018-07-05T23:25:46.119Z,19.77
2018-07-05T23:28:26.189Z,19.74
2018-07-05T23:31:06.276Z,19.73
2018-07-05T23:33:46.337Z,19.74
2018-07-05T23:36:26.121Z,19.76
2018-07-05T23:39:06.252Z,19.75
2018-07-05T23:41:46.273Z,19.79
2018-07-05T23:44:26.215Z,19.81
2018-07-05T23:47:06.194Z,19.87
2018-07-05T23:49:46.160Z,19.86
2018-07-05T23:52:26.196Z,19.88
2018-07-05T23:55:06.161Z,19.89
2018-07-05T23:57:46.050Z,19.88
